Time;durP1;ratioP1;P1;durP2;ratioP2;P2;SDS_P1;SDS_P2;PMS_P1;PMS_P2;Temp;Humidity;BMP_temperature;BMP_pressure;BME280_temperature;BME280_humidity;BME280_pressure;Samples;Min_cycle;Max_cycle;Signal;HPM_P1;HPM_P2
2022/01/09 00:02:09;;;;;;;21.13;11.90;;;;;;;;;;5058834;28;20436;-66
2022/01/09 00:04:36;;;;;;;13.53;7.70;;;;;;;;;;5069086;28;20484;-66
2022/01/09 00:07:03;;;;;;;22.87;12.93;;;;;;;;;;5068585;28;20436;-66
2022/01/09 00:09:33;;;;;;;22.47;12.27;;;;;;;;;;5058743;28;20499;-66
2022/01/09 00:11:59;;;;;;;15.80;8.40;;;;;;;;;;5030819;28;21061;-66
2022/01/09 00:14:26;;;;;;;20.87;10.93;;;;;;;;;;5049046;28;20444;-66
2022/01/09 00:16:52;;;;;;;19.10;10.77;;;;;;;;;;5049140;28;20461;-66
2022/01/09 00:19:19;;;;;;;24.17;12.37;;;;;;;;;;5048844;28;20433;-66
2022/01/09 00:21:46;;;;;;;24.30;12.80;;;;;;;;;;5058255;28;20528;-66
2022/01/09 00:24:13;;;;;;;22.33;12.43;;;;;;;;;;5067232;28;20444;-66
2022/01/09 00:26:40;;;;;;;22.37;12.77;;;;;;;;;;5068392;28;20460;-66
2022/01/09 00:29:07;;;;;;;18.17;7.97;;;;;;;;;;5068867;28;20992;-66
2022/01/09 00:31:34;;;;;;;21.27;10.40;;;;;;;;;;5068677;28;20509;-66
2022/01/09 00:34:00;;;;;;;20.97;11.57;;;;;;;;;;5068603;28;20931;-66
2022/01/09 00:36:27;;;;;;;26.60;10.27;;;;;;;;;;5068641;28;20428;-66
2022/01/09 00:38:53;;;;;;;22.97;12.47;;;;;;;;;;5068206;28;20444;-66
2022/01/09 00:41:20;;;;;;;25.27;12.53;;;;;;;;;;5049880;28;20534;-66
2022/01/09 00:43:46;;;;;;;23.47;12.37;;;;;;;;;;5068923;28;20455;-66
2022/01/09 00:46:13;;;;;;;22.07;12.17;;;;;;;;;;5068579;28;20448;-66
2022/01/09 00:48:40;;;;;;;20.57;11.57;;;;;;;;;;5068438;28;20443;-66
2022/01/09 00:51:06;;;;;;;18.57;11.43;;;;;;;;;;5068422;28;20435;-66
2022/01/09 00:53:33;;;;;;;19.53;12.50;;;;;;;;;;5064805;28;21236;-66
2022/01/09 00:55:59;;;;;;;21.80;12.43;;;;;;;;;;5034039;28;20539;-66
2022/01/09 00:58:26;;;;;;;17.53;9.27;;;;;;;;;;5052267;28;20990;-66
2022/01/09 01:00:53;;;;;;;24.33;12.03;;;;;;;;;;5034816;28;20469;-66
2022/01/09 01:03:20;;;;;;;24.83;13.37;;;;;;;;;;5052338;28;20433;-66
2022/01/09 01:37:44;;;;;;;19.77;11.03;;;;;;;;;;5052200;28;20396;-66
2022/01/09 01:40:15;;;;;;;10.13;5.83;;;;;;;;;;5034202;28;20526;-66
2022/01/09 01:42:41;;;;;;;17.97;11.23;;;;;;;;;;5051382;28;20437;-66
2022/01/09 01:45:08;;;;;;;18.07;9.83;;;;;;;;;;5071199;28;20448;-66
2022/01/09 01:47:35;;;;;;;19.50;11.57;;;;;;;;;;5070333;28;20459;-66
2022/01/09 01:50:05;;;;;;;8.33;4.67;;;;;;;;;;5053890;28;20424;-66
2022/01/09 01:52:38;;;;;;;7.07;4.47;;;;;;;;;;5053910;28;20855;-65
2022/01/09 01:55:05;;;;;;;22.13;9.83;;;;;;;;;;5071393;28;20442;-66
2022/01/09 01:57:31;;;;;;;11.80;7.20;;;;;;;;;;5071442;28;20539;-66
2022/01/09 01:59:58;;;;;;;8.70;5.20;;;;;;;;;;5052931;28;20448;-66
2022/01/09 02:02:25;;;;;;;16.37;9.30;;;;;;;;;;5070271;28;20820;-66
2022/01/09 02:04:52;;;;;;;11.50;6.53;;;;;;;;;;5067088;28;20464;-66
2022/01/09 02:07:19;;;;;;;9.63;3.50;;;;;;;;;;5052294;28;20425;-66
2022/01/09 02:09:45;;;;;;;10.43;5.33;;;;;;;;;;5071033;28;20444;-66
2022/01/09 02:12:12;;;;;;;7.13;3.70;;;;;;;;;;5070865;28;20525;-66
2022/01/09 02:14:43;;;;;;;7.77;4.43;;;;;;;;;;5053265;28;20432;-66
2022/01/09 02:17:10;;;;;;;10.53;6.50;;;;;;;;;;5071378;28;20490;-66
2022/01/09 02:19:37;;;;;;;9.43;5.77;;;;;;;;;;5051219;28;20452;-66
2022/01/09 02:22:04;;;;;;;7.07;3.73;;;;;;;;;;5052777;28;20867;-66
2022/01/09 02:24:31;;;;;;;12.57;6.73;;;;;;;;;;5053208;28;20429;-66
2022/01/09 02:26:57;;;;;;;8.97;4.57;;;;;;;;;;5070693;28;20424;-66
2022/01/09 02:29:24;;;;;;;11.13;7.13;;;;;;;;;;5070791;28;20490;-66
2022/01/09 02:31:50;;;;;;;11.03;6.63;;;;;;;;;;5071092;28;20479;-66
2022/01/09 02:34:17;;;;;;;12.63;7.40;;;;;;;;;;5070741;28;20421;-66
2022/01/09 02:36:43;;;;;;;11.50;7.27;;;;;;;;;;5057445;28;20457;-66
2022/01/09 02:39:10;;;;;;;11.10;6.77;;;;;;;;;;5070436;28;20527;-66
2022/01/09 02:41:37;;;;;;;12.10;7.27;;;;;;;;;;5070503;28;20432;-66
2022/01/09 02:44:07;;;;;;;13.37;7.40;;;;;;;;;;5070313;28;20967;-67
2022/01/09 02:46:55;;;;;;;12.47;7.47;;;;;;;;;;5070670;28;20428;-66
2022/01/09 02:49:22;;;;;;;13.60;7.73;;;;;;;;;;5070403;28;20938;-66
2022/01/09 02:51:48;;;;;;;13.67;7.60;;;;;;;;;;5070330;28;20452;-66
2022/01/09 02:57:00;;;;;;;12.93;8.00;;;;;;;;;;5069904;28;20428;-67
2022/01/09 02:59:27;;;;;;;13.47;8.00;;;;;;;;;;5070279;28;20476;-66
2022/01/09 03:01:53;;;;;;;14.70;8.27;;;;;;;;;;5070378;28;20433;-66
2022/01/09 03:04:20;;;;;;;14.10;8.30;;;;;;;;;;5069967;28;20459;-66
2022/01/09 03:06:46;;;;;;;12.50;8.13;;;;;;;;;;5070288;28;20429;-66
2022/01/09 03:09:13;;;;;;;13.07;8.33;;;;;;;;;;5068903;28;20498;-67
2022/01/09 03:11:40;;;;;;;12.90;8.90;;;;;;;;;;5049490;28;20457;-66
2022/01/09 03:14:07;;;;;;;14.80;8.40;;;;;;;;;;5050357;28;21132;-66
2022/01/09 03:16:34;;;;;;;14.57;8.43;;;;;;;;;;5050005;28;20452;-67
2022/01/09 03:19:01;;;;;;;17.03;10.10;;;;;;;;;;5049909;28;20422;-66
2022/01/09 03:21:27;;;;;;;17.33;9.77;;;;;;;;;;5049757;28;20421;-66
2022/01/09 03:23:54;;;;;;;17.63;10.03;;;;;;;;;;5052975;28;20474;-66
2022/01/09 03:26:21;;;;;;;20.30;11.10;;;;;;;;;;5053283;28;20441;-66
2022/01/09 03:28:47;;;;;;;24.20;11.20;;;;;;;;;;5049844;28;20425;-66
2022/01/09 03:31:14;;;;;;;21.63;12.13;;;;;;;;;;5049604;28;20513;-66
2022/01/09 03:33:41;;;;;;;21.93;12.37;;;;;;;;;;5049391;28;20476;-66
2022/01/09 03:36:07;;;;;;;26.10;11.97;;;;;;;;;;5049485;28;20429;-66
2022/01/09 03:38:34;;;;;;;24.47;13.13;;;;;;;;;;5052133;28;20979;-66
2022/01/09 03:41:00;;;;;;;24.87;12.67;;;;;;;;;;5051671;28;20460;-66
2022/01/09 03:43:27;;;;;;;27.27;13.93;;;;;;;;;;5067983;28;20448;-66
2022/01/09 03:45:53;;;;;;;24.77;13.23;;;;;;;;;;5069158;28;20467;-66
2022/01/09 03:48:20;;;;;;;26.37;14.33;;;;;;;;;;5068770;28;20936;-66
2022/01/09 03:50:51;;;;;;;27.60;14.50;;;;;;;;;;5069261;28;20938;-66
2022/01/09 03:53:17;;;;;;;24.97;11.83;;;;;;;;;;5069071;28;20480;-66
2022/01/09 03:55:44;;;;;;;24.37;11.83;;;;;;;;;;5069559;28;20452;-66
2022/01/09 03:58:10;;;;;;;33.03;17.50;;;;;;;;;;5058586;28;20441;-66
2022/01/09 04:00:37;;;;;;;20.07;10.67;;;;;;;;;;5049213;28;21186;-66
2022/01/09 04:03:04;;;;;;;23.13;11.00;;;;;;;;;;5056997;28;20444;-66
2022/01/09 04:05:30;;;;;;;21.30;11.20;;;;;;;;;;5069063;28;21161;-66
2022/01/09 04:07:57;;;;;;;22.10;12.10;;;;;;;;;;5051368;28;20448;-66
2022/01/09 04:10:41;;;;;;;29.03;14.30;;;;;;;;;;5068508;28;20444;-66
2022/01/09 04:13:10;;;;;;;23.80;12.70;;;;;;;;;;5068484;28;20480;-66
2022/01/09 04:15:38;;;;;;;26.50;14.33;;;;;;;;;;5051368;28;20433;-66
2022/01/09 04:18:05;;;;;;;26.37;13.97;;;;;;;;;;5048874;28;20443;-65
2022/01/09 04:20:31;;;;;;;28.07;13.53;;;;;;;;;;5048880;28;20429;-66
2022/01/09 04:22:58;;;;;;;24.47;14.20;;;;;;;;;;5048880;28;20421;-66
2022/01/09 04:25:25;;;;;;;30.03;15.60;;;;;;;;;;5066153;28;20444;-66
2022/01/09 04:27:51;;;;;;;32.93;15.27;;;;;;;;;;5068593;28;20433;-66
2022/01/09 04:30:18;;;;;;;30.43;15.17;;;;;;;;;;5067684;28;20475;-66
2022/01/09 04:32:45;;;;;;;27.83;14.00;;;;;;;;;;5051179;28;20479;-66
2022/01/09 04:35:12;;;;;;;20.30;9.30;;;;;;;;;;5041384;28;20468;-66
2022/01/09 04:37:38;;;;;;;26.73;14.43;;;;;;;;;;5039037;28;20529;-66
2022/01/09 04:40:06;;;;;;;29.20;14.60;;;;;;;;;;5068618;28;21057;-66
2022/01/09 04:42:40;;;;;;;27.97;14.23;;;;;;;;;;5068182;28;20447;-66
2022/01/09 04:45:08;;;;;;;31.87;15.53;;;;;;;;;;5068633;28;20497;-66
2022/01/09 04:47:35;;;;;;;26.57;11.83;;;;;;;;;;5067713;28;20460;-66
2022/01/09 04:50:02;;;;;;;22.80;11.53;;;;;;;;;;5068817;28;20432;-66
2022/01/09 04:52:33;;;;;;;28.10;14.40;;;;;;;;;;5068424;28;20491;-66
2022/01/09 04:55:00;;;;;;;29.20;13.77;;;;;;;;;;5068543;28;20805;-66
2022/01/09 04:57:26;;;;;;;27.13;14.00;;;;;;;;;;5067894;28;20468;-66
2022/01/09 04:59:53;;;;;;;32.50;15.97;;;;;;;;;;5068511;28;20456;-66
2022/01/09 05:02:20;;;;;;;33.10;15.90;;;;;;;;;;5067896;28;20444;-66
2022/01/09 05:04:46;;;;;;;29.57;14.53;;;;;;;;;;5067673;28;20448;-66
2022/01/09 05:07:13;;;;;;;32.23;16.07;;;;;;;;;;5068433;28;20429;-66
2022/01/09 05:09:39;;;;;;;36.00;17.50;;;;;;;;;;5068157;28;20431;-66
2022/01/09 05:12:09;;;;;;;33.80;16.80;;;;;;;;;;5066852;28;20432;-66
2022/01/09 05:14:36;;;;;;;31.93;15.00;;;;;;;;;;5068490;28;20478;-66
2022/01/09 05:17:03;;;;;;;36.43;16.50;;;;;;;;;;5068654;28;21230;-66
2022/01/09 05:19:32;;;;;;;35.03;16.67;;;;;;;;;;5068171;28;21123;-66
2022/01/09 05:22:00;;;;;;;33.80;15.77;;;;;;;;;;5067239;28;20543;-66
2022/01/09 05:24:26;;;;;;;40.37;17.70;;;;;;;;;;5067684;28;20476;-66
2022/01/09 05:26:54;;;;;;;38.60;20.77;;;;;;;;;;5068191;28;20428;-66
2022/01/09 05:29:21;;;;;;;45.60;22.53;;;;;;;;;;5067794;28;20491;-67
2022/01/09 05:31:51;;;;;;;48.20;21.57;;;;;;;;;;5068525;28;20440;-67
2022/01/09 05:34:17;;;;;;;56.57;23.87;;;;;;;;;;5068008;28;20573;-66
2022/01/09 05:36:44;;;;;;;53.07;24.10;;;;;;;;;;5058678;28;20449;-67
2022/01/09 05:39:10;;;;;;;50.33;23.73;;;;;;;;;;5066240;28;20431;-65
2022/01/09 05:41:37;;;;;;;59.67;25.67;;;;;;;;;;5074946;28;20435;-65
2022/01/09 05:44:04;;;;;;;57.70;24.53;;;;;;;;;;5075512;28;20526;-68
2022/01/09 05:46:30;;;;;;;56.77;24.30;;;;;;;;;;5056190;28;20449;-66
2022/01/09 05:48:57;;;;;;;59.03;23.63;;;;;;;;;;5079441;28;20550;-67
2022/01/09 05:51:24;;;;;;;50.37;22.57;;;;;;;;;;5073096;28;20499;-66
2022/01/09 05:53:50;;;;;;;54.83;23.10;;;;;;;;;;5075383;28;20483;-65
2022/01/09 05:56:17;;;;;;;51.40;21.77;;;;;;;;;;5068672;28;20452;-65
2022/01/09 05:58:43;;;;;;;40.83;18.10;;;;;;;;;;5074676;28;20452;-65
2022/01/09 06:01:10;;;;;;;48.73;21.33;;;;;;;;;;5081704;28;20451;-66
2022/01/09 06:03:36;;;;;;;48.73;21.47;;;;;;;;;;5070976;28;20459;-67
2022/01/09 06:06:03;;;;;;;46.23;18.83;;;;;;;;;;5071799;28;20783;-67
2022/01/09 06:08:30;;;;;;;56.93;21.33;;;;;;;;;;5072589;28;20455;-68
2022/01/09 06:10:56;;;;;;;47.70;20.97;;;;;;;;;;5073863;28;20421;-65
2022/01/09 06:13:23;;;;;;;41.83;15.40;;;;;;;;;;5071415;28;20966;-66
2022/01/09 06:15:53;;;;;;;39.80;17.30;;;;;;;;;;5071409;28;20452;-68
2022/01/09 06:18:20;;;;;;;43.13;18.20;;;;;;;;;;5074354;28;20479;-68
2022/01/09 06:20:47;;;;;;;45.13;21.53;;;;;;;;;;5055882;28;20440;-67
2022/01/09 06:23:16;;;;;;;42.40;19.43;;;;;;;;;;5056940;28;20485;-65
2022/01/09 06:25:42;;;;;;;43.00;18.83;;;;;;;;;;5070988;28;20431;-65
2022/01/09 06:28:09;;;;;;;44.87;18.00;;;;;;;;;;5071522;28;20504;-65
2022/01/09 06:30:35;;;;;;;45.00;19.37;;;;;;;;;;5071631;28;20962;-65
2022/01/09 06:33:02;;;;;;;44.93;20.13;;;;;;;;;;5074137;28;20517;-67
2022/01/09 06:35:29;;;;;;;44.80;18.33;;;;;;;;;;5073251;28;20532;-67
2022/01/09 06:37:55;;;;;;;42.20;19.40;;;;;;;;;;5074720;28;20427;-69
2022/01/09 06:40:22;;;;;;;44.90;20.77;;;;;;;;;;5055107;28;21011;-68
2022/01/09 06:42:49;;;;;;;41.17;17.07;;;;;;;;;;5080859;28;20471;-67
2022/01/09 06:45:15;;;;;;;34.13;14.30;;;;;;;;;;5068590;28;20966;-68
2022/01/09 06:47:42;;;;;;;39.13;15.50;;;;;;;;;;5056102;28;20509;-65
2022/01/09 06:50:10;;;;;;;35.47;14.77;;;;;;;;;;5072897;28;20432;-68
2022/01/09 06:52:37;;;;;;;41.70;18.47;;;;;;;;;;5073290;28;21350;-68
2022/01/09 06:55:04;;;;;;;42.07;17.73;;;;;;;;;;5077174;28;20446;-68
2022/01/09 06:57:30;;;;;;;42.43;17.97;;;;;;;;;;5074494;28;20459;-67
2022/01/09 06:59:57;;;;;;;42.57;18.50;;;;;;;;;;5072187;28;20472;-67
2022/01/09 07:02:24;;;;;;;42.63;18.20;;;;;;;;;;5074208;28;20872;-69
2022/01/09 07:04:50;;;;;;;40.87;17.40;;;;;;;;;;5073857;28;20510;-67
2022/01/09 07:07:17;;;;;;;38.97;16.60;;;;;;;;;;5070571;28;20464;-69
2022/01/09 07:09:43;;;;;;;43.40;18.20;;;;;;;;;;5043796;28;20436;-67
2022/01/09 07:12:10;;;;;;;39.47;17.40;;;;;;;;;;5071663;28;20481;-66
2022/01/09 07:14:37;;;;;;;47.77;19.37;;;;;;;;;;5075089;28;21441;-68
2022/01/09 07:17:04;;;;;;;41.80;17.33;;;;;;;;;;5071819;28;20444;-67
2022/01/09 07:19:31;;;;;;;44.57;19.50;;;;;;;;;;5073829;28;20446;-66
2022/01/09 07:21:57;;;;;;;34.43;13.13;;;;;;;;;;5073148;28;20555;-68
2022/01/09 07:24:24;;;;;;;43.87;19.53;;;;;;;;;;5051269;28;20493;-67
2022/01/09 07:26:51;;;;;;;47.93;18.93;;;;;;;;;;5050441;28;20472;-65
2022/01/09 07:29:17;;;;;;;43.40;18.37;;;;;;;;;;5069011;28;21121;-65
2022/01/09 07:31:44;;;;;;;51.87;21.53;;;;;;;;;;5069365;28;20432;-65
2022/01/09 07:34:10;;;;;;;52.67;20.17;;;;;;;;;;5050627;28;20532;-66
2022/01/09 07:36:37;;;;;;;50.40;19.50;;;;;;;;;;5056918;28;20560;-65
2022/01/09 07:39:04;;;;;;;45.00;19.37;;;;;;;;;;5047974;28;20437;-66
2022/01/09 07:41:30;;;;;;;51.60;21.40;;;;;;;;;;5048591;28;20430;-66
2022/01/09 07:43:57;;;;;;;57.70;21.07;;;;;;;;;;5048916;28;20437;-66
2022/01/09 07:46:23;;;;;;;47.73;19.47;;;;;;;;;;5048862;28;20434;-66
2022/01/09 07:48:50;;;;;;;51.13;21.03;;;;;;;;;;5048147;28;20429;-66
2022/01/09 07:51:16;;;;;;;47.77;20.30;;;;;;;;;;5048030;28;20426;-66
2022/01/09 07:53:43;;;;;;;46.63;20.53;;;;;;;;;;5048078;28;21013;-66
2022/01/09 07:56:09;;;;;;;51.07;21.27;;;;;;;;;;5048617;28;20457;-66
2022/01/09 07:58:36;;;;;;;45.57;20.00;;;;;;;;;;5048697;28;20437;-66
2022/01/09 08:01:03;;;;;;;54.53;22.13;;;;;;;;;;5048715;28;20575;-66
2022/01/09 08:03:29;;;;;;;46.93;21.73;;;;;;;;;;5048157;28;20441;-66
2022/01/09 08:05:56;;;;;;;52.00;21.20;;;;;;;;;;5047638;28;20429;-66
2022/01/09 08:08:23;;;;;;;53.27;22.77;;;;;;;;;;5029729;28;20516;-65
2022/01/09 08:10:49;;;;;;;53.77;21.33;;;;;;;;;;5049135;28;20460;-65
2022/01/09 08:13:16;;;;;;;52.73;22.63;;;;;;;;;;5047950;28;20475;-65
2022/01/09 08:15:42;;;;;;;54.93;23.60;;;;;;;;;;5048529;28;20429;-65
2022/01/09 08:18:09;;;;;;;51.83;23.50;;;;;;;;;;5048255;28;20977;-65
2022/01/09 08:20:35;;;;;;;52.53;21.60;;;;;;;;;;5048424;28;20503;-65
2022/01/09 08:23:02;;;;;;;52.67;22.93;;;;;;;;;;5048388;28;20433;-65
2022/01/09 08:25:35;;;;;;;53.17;22.37;;;;;;;;;;5060219;28;20448;-65
2022/01/09 08:28:03;;;;;;;49.83;22.37;;;;;;;;;;5067241;28;20436;-65
2022/01/09 08:30:29;;;;;;;47.80;21.93;;;;;;;;;;5067909;28;20440;-65
2022/01/09 08:32:56;;;;;;;55.00;23.90;;;;;;;;;;5049726;28;20460;-65
2022/01/09 08:35:23;;;;;;;41.43;19.83;;;;;;;;;;5068404;28;21148;-65
2022/01/09 08:37:51;;;;;;;44.30;20.33;;;;;;;;;;5067892;28;20420;-65
2022/01/09 08:40:20;;;;;;;41.80;21.70;;;;;;;;;;5067388;28;20460;-65
2022/01/09 08:42:47;;;;;;;44.13;21.23;;;;;;;;;;5033144;28;20832;-65
2022/01/09 08:45:14;;;;;;;45.17;20.80;;;;;;;;;;5047725;28;20429;-65
2022/01/09 08:47:41;;;;;;;40.97;20.40;;;;;;;;;;5048217;28;20433;-65
2022/01/09 08:50:08;;;;;;;45.90;21.90;;;;;;;;;;5048525;28;20781;-65
2022/01/09 08:52:35;;;;;;;44.67;21.80;;;;;;;;;;5047845;28;20425;-65
2022/01/09 08:55:03;;;;;;;45.30;22.03;;;;;;;;;;5047389;28;20468;-66
2022/01/09 08:57:29;;;;;;;39.83;20.20;;;;;;;;;;5051253;28;20834;-65
2022/01/09 08:59:56;;;;;;;43.73;21.17;;;;;;;;;;5068139;28;20428;-65
2022/01/09 09:02:23;;;;;;;41.40;20.40;;;;;;;;;;5067758;28;20527;-65
2022/01/09 09:04:49;;;;;;;38.93;20.03;;;;;;;;;;5068363;28;20429;-65
2022/01/09 09:07:18;;;;;;;41.37;19.47;;;;;;;;;;5067754;28;20458;-66
2022/01/09 09:09:45;;;;;;;39.93;19.80;;;;;;;;;;5066245;28;20443;-65
2022/01/09 09:12:12;;;;;;;40.63;20.20;;;;;;;;;;5074713;28;21003;-66
2022/01/09 09:14:41;;;;;;;43.20;22.30;;;;;;;;;;5056808;28;20583;-66
2022/01/09 09:17:08;;;;;;;44.07;22.60;;;;;;;;;;5070036;28;20424;-66
2022/01/09 09:19:35;;;;;;;37.83;20.80;;;;;;;;;;5071518;28;20923;-67
2022/01/09 09:22:02;;;;;;;37.70;21.10;;;;;;;;;;5057295;28;20493;-66
2022/01/09 09:24:29;;;;;;;41.23;21.37;;;;;;;;;;5051806;28;20499;-67
2022/01/09 09:26:56;;;;;;;38.83;21.17;;;;;;;;;;5058143;28;20831;-66
2022/01/09 09:29:22;;;;;;;37.27;20.37;;;;;;;;;;5055040;28;21373;-66
2022/01/09 09:31:49;;;;;;;40.60;21.13;;;;;;;;;;5080731;28;20450;-68
2022/01/09 09:34:16;;;;;;;40.77;22.10;;;;;;;;;;5072593;28;20474;-67
2022/01/09 09:36:42;;;;;;;43.63;24.30;;;;;;;;;;5061021;28;20467;-65
2022/01/09 09:39:09;;;;;;;45.30;23.67;;;;;;;;;;5036081;28;20436;-65
2022/01/09 09:41:38;;;;;;;44.73;23.83;;;;;;;;;;5080535;28;20438;-66
2022/01/09 09:44:07;;;;;;;36.40;20.40;;;;;;;;;;5072554;28;20447;-66
2022/01/09 09:46:34;;;;;;;39.97;23.30;;;;;;;;;;5045367;28;20441;-66
2022/01/09 09:49:01;;;;;;;40.03;22.73;;;;;;;;;;5032665;28;20471;-66
2022/01/09 09:51:29;;;;;;;36.27;21.50;;;;;;;;;;5049680;28;20500;-65
2022/01/09 09:53:56;;;;;;;36.47;21.13;;;;;;;;;;5090751;28;20562;-66
2022/01/09 09:56:23;;;;;;;35.90;20.70;;;;;;;;;;5066911;28;20494;-66
2022/01/09 09:58:50;;;;;;;34.60;21.50;;;;;;;;;;5050525;28;20207;-66
2022/01/09 10:01:24;;;;;;;34.50;21.03;;;;;;;;;;5057229;28;20440;-66
2022/01/09 10:03:57;;;;;;;37.80;22.17;;;;;;;;;;5067515;28;20432;-66
2022/01/09 10:06:33;;;;;;;33.17;21.23;;;;;;;;;;5074161;28;20576;-66
2022/01/09 10:09:07;;;;;;;32.87;20.37;;;;;;;;;;5069549;28;20195;-66
2022/01/09 10:11:41;;;;;;;38.10;21.40;;;;;;;;;;5060760;28;20577;-66
2022/01/09 10:14:20;;;;;;;36.63;21.10;;;;;;;;;;5049806;28;20283;-66
2022/01/09 10:17:05;;;;;;;36.80;21.63;;;;;;;;;;5076855;28;20619;-66
2022/01/09 10:19:48;;;;;;;33.97;20.67;;;;;;;;;;5069882;28;20275;-66
2022/01/09 10:22:32;;;;;;;33.80;19.27;;;;;;;;;;5057434;28;20550;-67
2022/01/09 10:25:18;;;;;;;32.67;18.43;;;;;;;;;;5057802;28;20294;-66
2022/01/09 10:27:44;;;;;;;32.33;18.87;;;;;;;;;;5069873;28;20561;-65
2022/01/09 10:30:12;;;;;;;30.93;19.03;;;;;;;;;;5070197;28;20190;-67
2022/01/09 10:32:39;;;;;;;33.20;18.50;;;;;;;;;;5051606;28;20227;-65
2022/01/09 10:35:11;;;;;;;34.47;19.40;;;;;;;;;;5054059;28;20680;-64
2022/01/09 10:37:39;;;;;;;33.43;19.63;;;;;;;;;;5053488;28;20562;-64
2022/01/09 10:40:08;;;;;;;30.90;18.73;;;;;;;;;;5069750;28;20225;-65
2022/01/09 10:42:35;;;;;;;34.90;20.17;;;;;;;;;;5068912;28;20201;-64
2022/01/09 10:45:20;;;;;;;35.63;20.20;;;;;;;;;;5085648;28;20194;-65
2022/01/09 10:47:48;;;;;;;35.63;20.77;;;;;;;;;;5069716;28;20194;-64
2022/01/09 10:50:24;;;;;;;36.10;20.37;;;;;;;;;;5069658;28;20198;-64
2022/01/09 10:52:51;;;;;;;34.03;19.60;;;;;;;;;;5090016;28;20189;-67
2022/01/09 10:55:17;;;;;;;33.43;19.90;;;;;;;;;;5082698;28;20722;-67
2022/01/09 10:57:44;;;;;;;37.47;20.70;;;;;;;;;;5050801;28;20719;-65
2022/01/09 11:00:12;;;;;;;34.97;20.00;;;;;;;;;;5049914;28;20604;-64
2022/01/09 11:02:39;;;;;;;34.93;21.10;;;;;;;;;;5049550;28;20290;-64
2022/01/09 11:05:06;;;;;;;36.43;20.73;;;;;;;;;;5054260;28;20244;-66
2022/01/09 11:07:32;;;;;;;34.87;20.50;;;;;;;;;;5052712;28;20433;-66
2022/01/09 11:10:00;;;;;;;39.63;23.10;;;;;;;;;;5032008;28;20194;-65
2022/01/09 11:12:34;;;;;;;42.90;23.80;;;;;;;;;;5031547;28;20897;-65
2022/01/09 11:15:02;;;;;;;41.57;24.63;;;;;;;;;;5056792;28;20470;-66
2022/01/09 11:17:28;;;;;;;42.87;25.33;;;;;;;;;;5072873;28;20943;-64
2022/01/09 11:19:55;;;;;;;44.97;25.40;;;;;;;;;;5070046;28;20446;-64
2022/01/09 11:22:22;;;;;;;39.33;23.90;;;;;;;;;;5053544;28;20429;-66
2022/01/09 11:24:50;;;;;;;43.37;23.10;;;;;;;;;;5033621;28;20436;-66
2022/01/09 11:27:16;;;;;;;45.10;24.20;;;;;;;;;;5054287;28;21022;-65
2022/01/09 11:29:47;;;;;;;44.30;25.20;;;;;;;;;;5056296;28;20542;-67
2022/01/09 11:32:20;;;;;;;46.87;25.93;;;;;;;;;;5066217;28;20799;-65
2022/01/09 11:34:52;;;;;;;41.67;25.70;;;;;;;;;;5069930;28;20481;-65
2022/01/09 11:37:25;;;;;;;49.27;26.87;;;;;;;;;;5035903;28;20524;-67
2022/01/09 11:39:52;;;;;;;48.00;25.87;;;;;;;;;;5026953;28;20506;-64
2022/01/09 11:42:18;;;;;;;46.63;27.37;;;;;;;;;;5042810;28;20441;-67
2022/01/09 11:44:49;;;;;;;53.57;28.77;;;;;;;;;;5048667;28;20444;-66
2022/01/09 11:47:16;;;;;;;48.60;28.27;;;;;;;;;;5034080;28;20478;-66
2022/01/09 11:49:49;;;;;;;53.03;29.60;;;;;;;;;;5029310;28;20462;-67
2022/01/09 11:52:22;;;;;;;55.67;29.97;;;;;;;;;;5044018;28;20445;-67
2022/01/09 11:54:49;;;;;;;51.83;30.27;;;;;;;;;;5049916;28;20453;-67
2022/01/09 11:57:49;;;;;;;58.07;30.97;;;;;;;;;;5052892;28;20954;-66
2022/01/09 12:00:29;;;;;;;53.73;29.83;;;;;;;;;;5033503;28;20488;-69
2022/01/09 12:02:56;;;;;;;60.20;31.33;;;;;;;;;;5018838;28;21192;-65
2022/01/09 12:05:23;;;;;;;57.13;31.20;;;;;;;;;;5040562;28;20557;-65
2022/01/09 12:07:50;;;;;;;57.73;31.83;;;;;;;;;;5048056;28;20437;-67
2022/01/09 12:10:17;;;;;;;57.10;30.63;;;;;;;;;;5048809;28;20428;-65
2022/01/09 12:12:45;;;;;;;60.03;31.27;;;;;;;;;;5066520;28;20838;-68
2022/01/09 12:15:12;;;;;;;55.00;30.70;;;;;;;;;;5058310;28;20504;-65
2022/01/09 12:17:40;;;;;;;59.30;30.40;;;;;;;;;;5045218;28;20473;-66
2022/01/09 12:20:14;;;;;;;54.00;28.53;;;;;;;;;;5048333;28;20479;-65
2022/01/09 12:22:51;;;;;;;57.50;29.33;;;;;;;;;;5030403;28;20492;-65
2022/01/09 12:25:22;;;;;;;52.53;30.33;;;;;;;;;;5033416;28;20429;-66
2022/01/09 12:27:56;;;;;;;54.97;29.87;;;;;;;;;;5028865;28;20468;-65
2022/01/09 12:30:40;;;;;;;55.13;28.80;;;;;;;;;;5028617;28;20442;-65
2022/01/09 12:33:09;;;;;;;55.30;29.07;;;;;;;;;;5028224;28;20467;-65
2022/01/09 12:35:36;;;;;;;54.67;29.77;;;;;;;;;;5033980;28;20472;-66
2022/01/09 12:38:03;;;;;;;52.43;28.93;;;;;;;;;;5028634;28;20453;-66
2022/01/09 12:40:32;;;;;;;53.50;29.73;;;;;;;;;;5041681;28;20499;-66
2022/01/09 12:42:59;;;;;;;56.10;29.53;;;;;;;;;;5068113;28;20525;-65
2022/01/09 12:45:27;;;;;;;53.33;28.67;;;;;;;;;;5070719;28;20500;-66
2022/01/09 12:47:54;;;;;;;63.80;30.10;;;;;;;;;;5067803;28;20440;-67
2022/01/09 12:50:39;;;;;;;70.67;33.57;;;;;;;;;;5062540;28;20428;-67
2022/01/09 12:53:12;;;;;;;57.13;30.33;;;;;;;;;;5065346;28;20452;-66
2022/01/09 12:55:54;;;;;;;98.93;39.47;;;;;;;;;;5073763;28;20472;-67
2022/01/09 12:58:28;;;;;;;58.50;29.17;;;;;;;;;;5051201;28;20495;-65
2022/01/09 13:00:55;;;;;;;57.43;29.57;;;;;;;;;;5055103;28;20439;-66
2022/01/09 13:03:24;;;;;;;57.40;29.80;;;;;;;;;;5053751;28;21304;-67
2022/01/09 13:05:55;;;;;;;57.57;30.73;;;;;;;;;;5059913;28;20467;-66
2022/01/09 13:08:21;;;;;;;58.23;30.10;;;;;;;;;;5070871;28;20470;-66
2022/01/09 13:10:58;;;;;;;57.17;29.90;;;;;;;;;;5070277;28;20447;-66
2022/01/09 13:13:25;;;;;;;55.03;30.77;;;;;;;;;;5070926;28;20515;-66
2022/01/09 13:15:53;;;;;;;58.57;30.43;;;;;;;;;;5077748;28;20475;-66
2022/01/09 13:18:40;;;;;;;61.17;30.37;;;;;;;;;;5050840;28;20434;-70
2022/01/09 13:21:08;;;;;;;55.57;29.20;;;;;;;;;;5078346;28;20433;-69
2022/01/09 13:23:34;;;;;;;63.00;30.63;;;;;;;;;;5068712;28;20436;-67
2022/01/09 13:26:14;;;;;;;58.20;28.87;;;;;;;;;;5075066;28;20430;-67
2022/01/09 13:28:41;;;;;;;55.13;29.30;;;;;;;;;;5033110;28;20437;-67
2022/01/09 13:31:07;;;;;;;61.57;30.00;;;;;;;;;;5032782;28;20542;-67
2022/01/09 13:33:34;;;;;;;53.33;30.17;;;;;;;;;;5015934;28;20495;-67
2022/01/09 13:36:02;;;;;;;56.17;30.40;;;;;;;;;;5056739;28;20553;-67
2022/01/09 13:38:29;;;;;;;56.73;30.87;;;;;;;;;;5032745;28;20441;-67
2022/01/09 13:40:56;;;;;;;55.87;29.20;;;;;;;;;;5054146;28;20567;-67
2022/01/09 13:43:23;;;;;;;58.57;29.97;;;;;;;;;;5069245;28;20434;-67
2022/01/09 13:45:50;;;;;;;60.17;30.33;;;;;;;;;;5046456;28;21046;-67
2022/01/09 13:48:17;;;;;;;58.73;29.80;;;;;;;;;;5068774;28;20481;-67
2022/01/09 13:50:59;;;;;;;60.10;29.90;;;;;;;;;;5053663;28;20433;-66
2022/01/09 13:53:25;;;;;;;60.70;29.53;;;;;;;;;;5050978;28;20789;-66
2022/01/09 13:55:52;;;;;;;61.30;30.97;;;;;;;;;;5056941;28;20480;-66
2022/01/09 13:58:20;;;;;;;57.07;29.80;;;;;;;;;;5050207;28;20515;-67
2022/01/09 14:00:49;;;;;;;60.70;31.00;;;;;;;;;;5057838;28;20452;-66
2022/01/09 14:03:24;;;;;;;61.57;30.97;;;;;;;;;;5069034;28;20486;-66
2022/01/09 14:05:51;;;;;;;57.03;29.53;;;;;;;;;;5050482;28;20495;-66
2022/01/09 14:08:20;;;;;;;59.17;30.53;;;;;;;;;;5050721;28;20429;-67
2022/01/09 14:10:50;;;;;;;58.53;30.23;;;;;;;;;;5053031;28;20517;-65
2022/01/09 14:13:18;;;;;;;57.93;30.13;;;;;;;;;;5052380;28;20976;-67
2022/01/09 14:15:47;;;;;;;65.53;30.70;;;;;;;;;;5069881;28;20474;-66
2022/01/09 14:18:29;;;;;;;58.10;30.10;;;;;;;;;;5050230;28;20437;-66
2022/01/09 14:21:08;;;;;;;62.50;29.53;;;;;;;;;;5050228;28;20552;-66
2022/01/09 14:23:36;;;;;;;58.37;29.33;;;;;;;;;;5049994;28;20886;-66
2022/01/09 14:26:07;;;;;;;60.40;30.50;;;;;;;;;;5054921;28;20424;-66
2022/01/09 14:28:33;;;;;;;58.80;30.33;;;;;;;;;;5070287;28;20436;-66
2022/01/09 14:31:04;;;;;;;53.10;28.93;;;;;;;;;;5048500;28;20465;-65
2022/01/09 14:33:32;;;;;;;58.23;29.87;;;;;;;;;;5042858;28;20448;-66
2022/01/09 14:36:10;;;;;;;62.57;31.50;;;;;;;;;;5052447;28;20468;-67
2022/01/09 14:38:57;;;;;;;60.40;31.13;;;;;;;;;;5052105;28;20541;-66
2022/01/09 14:41:24;;;;;;;69.53;34.13;;;;;;;;;;5062656;28;20448;-65
2022/01/09 14:43:51;;;;;;;77.03;35.53;;;;;;;;;;5050760;28;20421;-64
2022/01/09 14:46:19;;;;;;;71.97;35.57;;;;;;;;;;5055406;28;21158;-65
2022/01/09 14:48:46;;;;;;;79.77;37.77;;;;;;;;;;5049400;28;20444;-65
2022/01/09 14:51:13;;;;;;;76.33;37.93;;;;;;;;;;5050123;28;20448;-65
2022/01/09 14:53:40;;;;;;;78.83;38.40;;;;;;;;;;5050197;28;20429;-65
2022/01/09 14:56:07;;;;;;;88.60;41.17;;;;;;;;;;5037566;28;20496;-65
2022/01/09 14:58:33;;;;;;;86.20;40.43;;;;;;;;;;5050355;28;20517;-65
2022/01/09 15:01:00;;;;;;;94.17;42.23;;;;;;;;;;5036638;28;20440;-65